<?xml version="1.0" encoding="UTF-8" standalone="no" ?>
<gpx xmlns="http://www.topografix.com/GPX/1/1" xmlns:xsi="http://www.w3.org/2001/XMLSchema-instance" xsi:schemaLocation="http://www.topografix.com/GPX/1/1 http://www.topografix.com/GPX/1/1/gpx.xsd" version="1.1" creator="VisuGPX - https://www.visugpx.com">
  <metadata>
    <name>Le pont suspendu de Tonnay-Charente et le pont de la Cèpe</name>
  </metadata>
  <wpt lat="45.94099" lon="-0.88551">
    <ele>10</ele>
    <name><![CDATA[Stationnement au pont de Tonnay-Charente]]></name>
  </wpt>
  <wpt lat="45.9268" lon="-0.89457">
    <ele>4</ele>
    <name><![CDATA[Panneau d'entrée dans Saint-Hipolyte]]></name>
  </wpt>
  <wpt lat="45.92379" lon="-0.89939">
    <ele>6</ele>
    <name><![CDATA[Départ du chemin à gauche du transformateur]]></name>
  </wpt>
  <wpt lat="45.92358" lon="-0.89926">
    <ele>5</ele>
    <name><![CDATA[Départ du chemin à gauche du transformateur]]></name>
  </wpt>
  <wpt lat="45.91926" lon="-0.90318">
    <ele>6</ele>
    <name><![CDATA[À gauche à la route]]></name>
  </wpt>
  <wpt lat="45.91455" lon="-0.90316">
    <ele>5</ele>
    <name><![CDATA[Départ du chemin de terre à gauche]]></name>
  </wpt>
  <wpt lat="45.90221" lon="-0.90266">
    <ele>19</ele>
    <name><![CDATA[Arrivée sur l'ancienne voie ferrée]]></name>
  </wpt>
  <wpt lat="45.90328" lon="-0.87887">
    <ele>8</ele>
    <name><![CDATA[Passage sous la route Rochefort à Saintes]]></name>
  </wpt>
  <wpt lat="45.90993" lon="-0.86584">
    <ele>2</ele>
    <name><![CDATA[Pont de la Cèpe rive droite]]></name>
  </wpt>
  <wpt lat="45.9286" lon="-0.86867">
    <ele>5</ele>
    <name><![CDATA[Passage à niveau]]></name>
  </wpt>
  <wpt lat="45.93966" lon="-0.87994">
    <ele>7</ele>
    <name><![CDATA[Entrée de Tonnay Charente]]></name>
  </wpt>
  <wpt lat="45.94091" lon="-0.88541">
    <ele>10</ele>
    <name><![CDATA[Stationnement au pont de Tonnay-Charente]]></name>
  </wpt>
  <trk>
    <name><![CDATA[Le pont suspendu de Tonnay-Charente et le pont de la Cèpe]]></name>
    <trkseg>
      <trkpt lat="45.94099" lon="-0.88551">
        <ele>10</ele>
        <time>2019-03-20T14:49:44+01:00</time>
      </trkpt>
      <trkpt lat="45.94118" lon="-0.88561">
        <ele>11</ele>
        <time>2019-03-20T14:50:26+01:00</time>
      </trkpt>
      <trkpt lat="45.94132" lon="-0.88559">
        <ele>13</ele>
        <time>2019-03-20T14:50:37+01:00</time>
      </trkpt>
      <trkpt lat="45.94154" lon="-0.88534">
        <ele>16</ele>
        <time>2019-03-20T14:50:51+01:00</time>
      </trkpt>
      <trkpt lat="45.94145" lon="-0.88529">
        <ele>16</ele>
        <time>2019-03-20T14:51:31+01:00</time>
      </trkpt>
      <trkpt lat="45.94121" lon="-0.88533">
        <ele>13</ele>
        <time>2019-03-20T14:52:10+01:00</time>
      </trkpt>
      <trkpt lat="45.94099" lon="-0.88543">
        <ele>10</ele>
        <time>2019-03-20T14:53:43+01:00</time>
      </trkpt>
      <trkpt lat="45.94076" lon="-0.88557">
        <ele>8</ele>
        <time>2019-03-20T14:53:53+01:00</time>
      </trkpt>
      <trkpt lat="45.94054" lon="-0.8857">
        <ele>7</ele>
        <time>2019-03-20T14:54:03+01:00</time>
      </trkpt>
      <trkpt lat="45.94033" lon="-0.88584">
        <ele>8</ele>
        <time>2019-03-20T14:54:13+01:00</time>
      </trkpt>
      <trkpt lat="45.94012" lon="-0.88599">
        <ele>8</ele>
        <time>2019-03-20T14:54:25+01:00</time>
      </trkpt>
      <trkpt lat="45.93991" lon="-0.88614">
        <ele>7</ele>
        <time>2019-03-20T14:55:59+01:00</time>
      </trkpt>
      <trkpt lat="45.93969" lon="-0.88628">
        <ele>5</ele>
        <time>2019-03-20T14:56:07+01:00</time>
      </trkpt>
      <trkpt lat="45.93947" lon="-0.88644">
        <ele>4</ele>
        <time>2019-03-20T14:56:13+01:00</time>
      </trkpt>
      <trkpt lat="45.93926" lon="-0.88657">
        <ele>3</ele>
        <time>2019-03-20T14:56:19+01:00</time>
      </trkpt>
      <trkpt lat="45.93901" lon="-0.88673">
        <ele>3</ele>
        <time>2019-03-20T14:56:25+01:00</time>
      </trkpt>
      <trkpt lat="45.93879" lon="-0.88688">
        <ele>3</ele>
        <time>2019-03-20T14:56:29+01:00</time>
      </trkpt>
      <trkpt lat="45.93855" lon="-0.88702">
        <ele>3</ele>
        <time>2019-03-20T14:56:34+01:00</time>
      </trkpt>
      <trkpt lat="45.93834" lon="-0.88716">
        <ele>3</ele>
        <time>2019-03-20T14:56:39+01:00</time>
      </trkpt>
      <trkpt lat="45.93811" lon="-0.8873">
        <ele>3</ele>
        <time>2019-03-20T14:56:45+01:00</time>
      </trkpt>
      <trkpt lat="45.93789" lon="-0.88745">
        <ele>4</ele>
        <time>2019-03-20T14:56:54+01:00</time>
      </trkpt>
      <trkpt lat="45.93768" lon="-0.8876">
        <ele>4</ele>
        <time>2019-03-20T14:57:51+01:00</time>
      </trkpt>
      <trkpt lat="45.93746" lon="-0.88774">
        <ele>3</ele>
        <time>2019-03-20T14:57:57+01:00</time>
      </trkpt>
      <trkpt lat="45.93724" lon="-0.88788">
        <ele>3</ele>
        <time>2019-03-20T14:58:02+01:00</time>
      </trkpt>
      <trkpt lat="45.93699" lon="-0.88804">
        <ele>2</ele>
        <time>2019-03-20T14:58:08+01:00</time>
      </trkpt>
      <trkpt lat="45.93677" lon="-0.88817">
        <ele>2</ele>
        <time>2019-03-20T14:58:13+01:00</time>
      </trkpt>
      <trkpt lat="45.93655" lon="-0.8883">
        <ele>2</ele>
        <time>2019-03-20T14:58:18+01:00</time>
      </trkpt>
      <trkpt lat="45.93634" lon="-0.88846">
        <ele>2</ele>
        <time>2019-03-20T14:58:23+01:00</time>
      </trkpt>
      <trkpt lat="45.93612" lon="-0.8886">
        <ele>3</ele>
        <time>2019-03-20T14:58:29+01:00</time>
      </trkpt>
      <trkpt lat="45.93588" lon="-0.88868">
        <ele>3</ele>
        <time>2019-03-20T14:58:57+01:00</time>
      </trkpt>
      <trkpt lat="45.93568" lon="-0.88886">
        <ele>4</ele>
        <time>2019-03-20T14:59:06+01:00</time>
      </trkpt>
      <trkpt lat="45.93544" lon="-0.88897">
        <ele>4</ele>
        <time>2019-03-20T14:59:15+01:00</time>
      </trkpt>
      <trkpt lat="45.93522" lon="-0.88914">
        <ele>5</ele>
        <time>2019-03-20T14:59:22+01:00</time>
      </trkpt>
      <trkpt lat="45.93501" lon="-0.88927">
        <ele>5</ele>
        <time>2019-03-20T14:59:29+01:00</time>
      </trkpt>
      <trkpt lat="45.93478" lon="-0.88938">
        <ele>4</ele>
        <time>2019-03-20T14:59:36+01:00</time>
      </trkpt>
      <trkpt lat="45.93455" lon="-0.88954">
        <ele>3</ele>
        <time>2019-03-20T14:59:43+01:00</time>
      </trkpt>
      <trkpt lat="45.93432" lon="-0.88971">
        <ele>3</ele>
        <time>2019-03-20T14:59:50+01:00</time>
      </trkpt>
      <trkpt lat="45.93409" lon="-0.88986">
        <ele>3</ele>
        <time>2019-03-20T14:59:57+01:00</time>
      </trkpt>
      <trkpt lat="45.93386" lon="-0.89001">
        <ele>3</ele>
        <time>2019-03-20T15:00:04+01:00</time>
      </trkpt>
      <trkpt lat="45.93364" lon="-0.89016">
        <ele>2</ele>
        <time>2019-03-20T15:00:11+01:00</time>
      </trkpt>
      <trkpt lat="45.93341" lon="-0.8903">
        <ele>2</ele>
        <time>2019-03-20T15:00:18+01:00</time>
      </trkpt>
      <trkpt lat="45.9332" lon="-0.89041">
        <ele>2</ele>
        <time>2019-03-20T15:00:25+01:00</time>
      </trkpt>
      <trkpt lat="45.93298" lon="-0.89055">
        <ele>3</ele>
        <time>2019-03-20T15:00:32+01:00</time>
      </trkpt>
      <trkpt lat="45.93275" lon="-0.89069">
        <ele>3</ele>
        <time>2019-03-20T15:00:39+01:00</time>
      </trkpt>
      <trkpt lat="45.93252" lon="-0.89084">
        <ele>4</ele>
        <time>2019-03-20T15:00:46+01:00</time>
      </trkpt>
      <trkpt lat="45.9323" lon="-0.89099">
        <ele>4</ele>
        <time>2019-03-20T15:00:53+01:00</time>
      </trkpt>
      <trkpt lat="45.93206" lon="-0.89115">
        <ele>4</ele>
        <time>2019-03-20T15:01:00+01:00</time>
      </trkpt>
      <trkpt lat="45.93184" lon="-0.89131">
        <ele>4</ele>
        <time>2019-03-20T15:01:07+01:00</time>
      </trkpt>
      <trkpt lat="45.93164" lon="-0.89145">
        <ele>4</ele>
        <time>2019-03-20T15:01:13+01:00</time>
      </trkpt>
      <trkpt lat="45.93141" lon="-0.89159">
        <ele>4</ele>
        <time>2019-03-20T15:01:20+01:00</time>
      </trkpt>
      <trkpt lat="45.93117" lon="-0.89176">
        <ele>3</ele>
        <time>2019-03-20T15:01:27+01:00</time>
      </trkpt>
      <trkpt lat="45.93093" lon="-0.89193">
        <ele>3</ele>
        <time>2019-03-20T15:01:34+01:00</time>
      </trkpt>
      <trkpt lat="45.93071" lon="-0.89209">
        <ele>3</ele>
        <time>2019-03-20T15:01:40+01:00</time>
      </trkpt>
      <trkpt lat="45.93048" lon="-0.89223">
        <ele>3</ele>
        <time>2019-03-20T15:01:47+01:00</time>
      </trkpt>
      <trkpt lat="45.93026" lon="-0.89237">
        <ele>3</ele>
        <time>2019-03-20T15:01:54+01:00</time>
      </trkpt>
      <trkpt lat="45.93003" lon="-0.89252">
        <ele>3</ele>
        <time>2019-03-20T15:02:01+01:00</time>
      </trkpt>
      <trkpt lat="45.92981" lon="-0.89267">
        <ele>3</ele>
        <time>2019-03-20T15:02:08+01:00</time>
      </trkpt>
      <trkpt lat="45.92959" lon="-0.89281">
        <ele>3</ele>
        <time>2019-03-20T15:02:15+01:00</time>
      </trkpt>
      <trkpt lat="45.92936" lon="-0.89295">
        <ele>3</ele>
        <time>2019-03-20T15:02:22+01:00</time>
      </trkpt>
      <trkpt lat="45.92915" lon="-0.89308">
        <ele>3</ele>
        <time>2019-03-20T15:02:29+01:00</time>
      </trkpt>
      <trkpt lat="45.92894" lon="-0.89321">
        <ele>3</ele>
        <time>2019-03-20T15:02:36+01:00</time>
      </trkpt>
      <trkpt lat="45.92871" lon="-0.89335">
        <ele>2</ele>
        <time>2019-03-20T15:02:43+01:00</time>
      </trkpt>
      <trkpt lat="45.92849" lon="-0.89348">
        <ele>2</ele>
        <time>2019-03-20T15:02:50+01:00</time>
      </trkpt>
      <trkpt lat="45.92826" lon="-0.89363">
        <ele>2</ele>
        <time>2019-03-20T15:02:57+01:00</time>
      </trkpt>
      <trkpt lat="45.92804" lon="-0.89378">
        <ele>2</ele>
        <time>2019-03-20T15:03:04+01:00</time>
      </trkpt>
      <trkpt lat="45.9278" lon="-0.89393">
        <ele>3</ele>
        <time>2019-03-20T15:03:11+01:00</time>
      </trkpt>
      <trkpt lat="45.92756" lon="-0.89408">
        <ele>3</ele>
        <time>2019-03-20T15:03:18+01:00</time>
      </trkpt>
      <trkpt lat="45.92735" lon="-0.89421">
        <ele>3</ele>
        <time>2019-03-20T15:03:25+01:00</time>
      </trkpt>
      <trkpt lat="45.92714" lon="-0.89434">
        <ele>4</ele>
        <time>2019-03-20T15:03:32+01:00</time>
      </trkpt>
      <trkpt lat="45.9268" lon="-0.89457">
        <ele>4</ele>
        <time>2019-03-20T15:03:39+01:00</time>
      </trkpt>
      <trkpt lat="45.92693" lon="-0.89488">
        <ele>4</ele>
        <time>2019-03-20T15:07:01+01:00</time>
      </trkpt>
      <trkpt lat="45.92704" lon="-0.89519">
        <ele>4</ele>
        <time>2019-03-20T15:07:09+01:00</time>
      </trkpt>
      <trkpt lat="45.92715" lon="-0.8955">
        <ele>4</ele>
        <time>2019-03-20T15:07:19+01:00</time>
      </trkpt>
      <trkpt lat="45.92722" lon="-0.89584">
        <ele>4</ele>
        <time>2019-03-20T15:07:29+01:00</time>
      </trkpt>
      <trkpt lat="45.92728" lon="-0.89618">
        <ele>4</ele>
        <time>2019-03-20T15:07:37+01:00</time>
      </trkpt>
      <trkpt lat="45.92734" lon="-0.89652">
        <ele>4</ele>
        <time>2019-03-20T15:07:45+01:00</time>
      </trkpt>
      <trkpt lat="45.92735" lon="-0.89687">
        <ele>4</ele>
        <time>2019-03-20T15:07:53+01:00</time>
      </trkpt>
      <trkpt lat="45.92735" lon="-0.89721">
        <ele>4</ele>
        <time>2019-03-20T15:08:01+01:00</time>
      </trkpt>
      <trkpt lat="45.92714" lon="-0.89738">
        <ele>4</ele>
        <time>2019-03-20T15:08:10+01:00</time>
      </trkpt>
      <trkpt lat="45.92693" lon="-0.89753">
        <ele>5</ele>
        <time>2019-03-20T15:08:18+01:00</time>
      </trkpt>
      <trkpt lat="45.92671" lon="-0.8977">
        <ele>6</ele>
        <time>2019-03-20T15:08:27+01:00</time>
      </trkpt>
      <trkpt lat="45.92649" lon="-0.89786">
        <ele>6</ele>
        <time>2019-03-20T15:08:36+01:00</time>
      </trkpt>
      <trkpt lat="45.92626" lon="-0.898">
        <ele>6</ele>
        <time>2019-03-20T15:08:45+01:00</time>
      </trkpt>
      <trkpt lat="45.92602" lon="-0.89809">
        <ele>5</ele>
        <time>2019-03-20T15:08:55+01:00</time>
      </trkpt>
      <trkpt lat="45.92578" lon="-0.89817">
        <ele>5</ele>
        <time>2019-03-20T15:11:20+01:00</time>
      </trkpt>
      <trkpt lat="45.92557" lon="-0.89831">
        <ele>6</ele>
        <time>2019-03-20T15:11:28+01:00</time>
      </trkpt>
      <trkpt lat="45.92532" lon="-0.8984">
        <ele>6</ele>
        <time>2019-03-20T15:11:35+01:00</time>
      </trkpt>
      <trkpt lat="45.92511" lon="-0.89856">
        <ele>7</ele>
        <time>2019-03-20T15:11:39+01:00</time>
      </trkpt>
      <trkpt lat="45.92487" lon="-0.8987">
        <ele>6</ele>
        <time>2019-03-20T15:11:45+01:00</time>
      </trkpt>
      <trkpt lat="45.92465" lon="-0.89883">
        <ele>6</ele>
        <time>2019-03-20T15:11:51+01:00</time>
      </trkpt>
      <trkpt lat="45.92442" lon="-0.89899">
        <ele>6</ele>
        <time>2019-03-20T15:11:58+01:00</time>
      </trkpt>
      <trkpt lat="45.92418" lon="-0.89914">
        <ele>6</ele>
        <time>2019-03-20T15:12:05+01:00</time>
      </trkpt>
      <trkpt lat="45.92395" lon="-0.89926">
        <ele>6</ele>
        <time>2019-03-20T15:12:12+01:00</time>
      </trkpt>
      <trkpt lat="45.92379" lon="-0.89939">
        <ele>6</ele>
        <time>2019-03-20T15:12:53+01:00</time>
      </trkpt>
      <trkpt lat="45.92358" lon="-0.89926">
        <ele>5</ele>
        <time>2019-03-20T15:13:01+01:00</time>
      </trkpt>
      <trkpt lat="45.92333" lon="-0.89942">
        <ele>5</ele>
        <time>2019-03-20T15:15:52+01:00</time>
      </trkpt>
      <trkpt lat="45.92315" lon="-0.89964">
        <ele>5</ele>
        <time>2019-03-20T15:16:02+01:00</time>
      </trkpt>
      <trkpt lat="45.92298" lon="-0.89989">
        <ele>5</ele>
        <time>2019-03-20T15:16:13+01:00</time>
      </trkpt>
      <trkpt lat="45.92282" lon="-0.90015">
        <ele>5</ele>
        <time>2019-03-20T15:16:23+01:00</time>
      </trkpt>
      <trkpt lat="45.92266" lon="-0.90042">
        <ele>5</ele>
        <time>2019-03-20T15:16:34+01:00</time>
      </trkpt>
      <trkpt lat="45.92248" lon="-0.90062">
        <ele>5</ele>
        <time>2019-03-20T15:16:44+01:00</time>
      </trkpt>
      <trkpt lat="45.92228" lon="-0.90082">
        <ele>5</ele>
        <time>2019-03-20T15:16:54+01:00</time>
      </trkpt>
      <trkpt lat="45.92207" lon="-0.90098">
        <ele>5</ele>
        <time>2019-03-20T15:17:03+01:00</time>
      </trkpt>
      <trkpt lat="45.92187" lon="-0.90114">
        <ele>5</ele>
        <time>2019-03-20T15:17:12+01:00</time>
      </trkpt>
      <trkpt lat="45.92166" lon="-0.90125">
        <ele>5</ele>
        <time>2019-03-20T15:17:21+01:00</time>
      </trkpt>
      <trkpt lat="45.92145" lon="-0.90142">
        <ele>5</ele>
        <time>2019-03-20T15:17:31+01:00</time>
      </trkpt>
      <trkpt lat="45.92125" lon="-0.90161">
        <ele>6</ele>
        <time>2019-03-20T15:17:41+01:00</time>
      </trkpt>
      <trkpt lat="45.92106" lon="-0.90181">
        <ele>7</ele>
        <time>2019-03-20T15:17:53+01:00</time>
      </trkpt>
      <trkpt lat="45.92087" lon="-0.90199">
        <ele>7</ele>
        <time>2019-03-20T15:18:05+01:00</time>
      </trkpt>
      <trkpt lat="45.92067" lon="-0.90217">
        <ele>7</ele>
        <time>2019-03-20T15:18:16+01:00</time>
      </trkpt>
      <trkpt lat="45.92047" lon="-0.90234">
        <ele>7</ele>
        <time>2019-03-20T15:18:26+01:00</time>
      </trkpt>
      <trkpt lat="45.92026" lon="-0.90249">
        <ele>6</ele>
        <time>2019-03-20T15:18:36+01:00</time>
      </trkpt>
      <trkpt lat="45.92005" lon="-0.90266">
        <ele>6</ele>
        <time>2019-03-20T15:18:46+01:00</time>
      </trkpt>
      <trkpt lat="45.91985" lon="-0.90281">
        <ele>6</ele>
        <time>2019-03-20T15:18:56+01:00</time>
      </trkpt>
      <trkpt lat="45.91964" lon="-0.90293">
        <ele>6</ele>
        <time>2019-03-20T15:19:06+01:00</time>
      </trkpt>
      <trkpt lat="45.91946" lon="-0.90311">
        <ele>6</ele>
        <time>2021-09-24T07:58:35+02:00</time>
      </trkpt>
      <trkpt lat="45.91926" lon="-0.90318">
        <ele>6</ele>
        <time>2019-03-20T15:19:16+01:00</time>
      </trkpt>
      <trkpt lat="45.9191" lon="-0.90319">
        <ele>6</ele>
        <time>2019-03-20T15:20:19+01:00</time>
      </trkpt>
      <trkpt lat="45.91898" lon="-0.9032">
        <ele>6</ele>
        <time>2019-03-20T15:20:27+01:00</time>
      </trkpt>
      <trkpt lat="45.91874" lon="-0.90318">
        <ele>7</ele>
        <time>2019-03-20T15:20:35+01:00</time>
      </trkpt>
      <trkpt lat="45.91849" lon="-0.90317">
        <ele>7</ele>
        <time>2019-03-20T15:20:43+01:00</time>
      </trkpt>
      <trkpt lat="45.91824" lon="-0.90314">
        <ele>7</ele>
        <time>2019-03-20T15:20:52+01:00</time>
      </trkpt>
      <trkpt lat="45.918" lon="-0.90306">
        <ele>7</ele>
        <time>2019-03-20T15:20:59+01:00</time>
      </trkpt>
      <trkpt lat="45.91778" lon="-0.90297">
        <ele>6</ele>
        <time>2019-03-20T15:21:05+01:00</time>
      </trkpt>
      <trkpt lat="45.91752" lon="-0.90286">
        <ele>6</ele>
        <time>2019-03-20T15:21:11+01:00</time>
      </trkpt>
      <trkpt lat="45.91726" lon="-0.90278">
        <ele>6</ele>
        <time>2019-03-20T15:21:17+01:00</time>
      </trkpt>
      <trkpt lat="45.917" lon="-0.90273">
        <ele>6</ele>
        <time>2019-03-20T15:21:23+01:00</time>
      </trkpt>
      <trkpt lat="45.91676" lon="-0.90268">
        <ele>5</ele>
        <time>2019-03-20T15:21:29+01:00</time>
      </trkpt>
      <trkpt lat="45.91653" lon="-0.90263">
        <ele>5</ele>
        <time>2019-03-20T15:21:36+01:00</time>
      </trkpt>
      <trkpt lat="45.9163" lon="-0.90259">
        <ele>5</ele>
        <time>2019-03-20T15:22:35+01:00</time>
      </trkpt>
      <trkpt lat="45.91608" lon="-0.90263">
        <ele>5</ele>
        <time>2019-03-20T15:22:42+01:00</time>
      </trkpt>
      <trkpt lat="45.91584" lon="-0.90265">
        <ele>5</ele>
        <time>2019-03-20T15:22:48+01:00</time>
      </trkpt>
      <trkpt lat="45.91561" lon="-0.90272">
        <ele>5</ele>
        <time>2019-03-20T15:22:56+01:00</time>
      </trkpt>
      <trkpt lat="45.91538" lon="-0.9028">
        <ele>5</ele>
        <time>2019-03-20T15:23:04+01:00</time>
      </trkpt>
      <trkpt lat="45.91513" lon="-0.90291">
        <ele>5</ele>
        <time>2019-03-20T15:23:12+01:00</time>
      </trkpt>
      <trkpt lat="45.91488" lon="-0.90302">
        <ele>5</ele>
        <time>2019-03-20T15:23:19+01:00</time>
      </trkpt>
      <trkpt lat="45.91455" lon="-0.90316">
        <ele>5</ele>
        <time>2019-03-20T15:23:26+01:00</time>
      </trkpt>
      <trkpt lat="45.91442" lon="-0.90306">
        <ele>5</ele>
        <time>2019-03-20T15:25:01+01:00</time>
      </trkpt>
      <trkpt lat="45.91419" lon="-0.90294">
        <ele>5</ele>
        <time>2019-03-20T15:25:11+01:00</time>
      </trkpt>
      <trkpt lat="45.91395" lon="-0.90285">
        <ele>6</ele>
        <time>2019-03-20T15:25:20+01:00</time>
      </trkpt>
      <trkpt lat="45.91371" lon="-0.90289">
        <ele>6</ele>
        <time>2019-03-20T15:25:30+01:00</time>
      </trkpt>
      <trkpt lat="45.91349" lon="-0.903">
        <ele>6</ele>
        <time>2019-03-20T15:25:40+01:00</time>
      </trkpt>
      <trkpt lat="45.91326" lon="-0.90312">
        <ele>7</ele>
        <time>2019-03-20T15:25:50+01:00</time>
      </trkpt>
      <trkpt lat="45.91303" lon="-0.90322">
        <ele>7</ele>
        <time>2019-03-20T15:26:00+01:00</time>
      </trkpt>
      <trkpt lat="45.9128" lon="-0.9033">
        <ele>7</ele>
        <time>2019-03-20T15:26:09+01:00</time>
      </trkpt>
      <trkpt lat="45.91257" lon="-0.90338">
        <ele>7</ele>
        <time>2019-03-20T15:26:18+01:00</time>
      </trkpt>
      <trkpt lat="45.91234" lon="-0.90341">
        <ele>7</ele>
        <time>2019-03-20T15:26:28+01:00</time>
      </trkpt>
      <trkpt lat="45.9121" lon="-0.90349">
        <ele>8</ele>
        <time>2019-03-20T15:26:38+01:00</time>
      </trkpt>
      <trkpt lat="45.91185" lon="-0.90357">
        <ele>8</ele>
        <time>2019-03-20T15:26:48+01:00</time>
      </trkpt>
      <trkpt lat="45.91161" lon="-0.90363">
        <ele>9</ele>
        <time>2019-03-20T15:26:58+01:00</time>
      </trkpt>
      <trkpt lat="45.91139" lon="-0.9037">
        <ele>9</ele>
        <time>2019-03-20T15:27:08+01:00</time>
      </trkpt>
      <trkpt lat="45.91115" lon="-0.90377">
        <ele>10</ele>
        <time>2019-03-20T15:27:19+01:00</time>
      </trkpt>
      <trkpt lat="45.91092" lon="-0.90384">
        <ele>11</ele>
        <time>2019-03-20T15:27:29+01:00</time>
      </trkpt>
      <trkpt lat="45.91068" lon="-0.90391">
        <ele>12</ele>
        <time>2019-03-20T15:27:39+01:00</time>
      </trkpt>
      <trkpt lat="45.91045" lon="-0.90395">
        <ele>13</ele>
        <time>2019-03-20T15:27:49+01:00</time>
      </trkpt>
      <trkpt lat="45.91021" lon="-0.904">
        <ele>13</ele>
        <time>2019-03-20T15:27:59+01:00</time>
      </trkpt>
      <trkpt lat="45.90998" lon="-0.90402">
        <ele>14</ele>
        <time>2019-03-20T15:28:09+01:00</time>
      </trkpt>
      <trkpt lat="45.90974" lon="-0.90405">
        <ele>14</ele>
        <time>2019-03-20T15:29:12+01:00</time>
      </trkpt>
      <trkpt lat="45.90951" lon="-0.90411">
        <ele>13</ele>
        <time>2019-03-20T15:29:21+01:00</time>
      </trkpt>
      <trkpt lat="45.90927" lon="-0.9042">
        <ele>13</ele>
        <time>2019-03-20T15:29:29+01:00</time>
      </trkpt>
      <trkpt lat="45.90905" lon="-0.90432">
        <ele>13</ele>
        <time>2019-03-20T15:29:38+01:00</time>
      </trkpt>
      <trkpt lat="45.90884" lon="-0.90446">
        <ele>13</ele>
        <time>2019-03-20T15:29:47+01:00</time>
      </trkpt>
      <trkpt lat="45.90863" lon="-0.90463">
        <ele>13</ele>
        <time>2019-03-20T15:29:56+01:00</time>
      </trkpt>
      <trkpt lat="45.90841" lon="-0.90477">
        <ele>13</ele>
        <time>2019-03-20T15:30:05+01:00</time>
      </trkpt>
      <trkpt lat="45.90819" lon="-0.9049">
        <ele>13</ele>
        <time>2019-03-20T15:30:16+01:00</time>
      </trkpt>
      <trkpt lat="45.90798" lon="-0.90501">
        <ele>14</ele>
        <time>2019-03-20T15:30:26+01:00</time>
      </trkpt>
      <trkpt lat="45.90775" lon="-0.90508">
        <ele>15</ele>
        <time>2019-03-20T15:30:38+01:00</time>
      </trkpt>
      <trkpt lat="45.90752" lon="-0.90514">
        <ele>15</ele>
        <time>2019-03-20T15:30:50+01:00</time>
      </trkpt>
      <trkpt lat="45.90728" lon="-0.90513">
        <ele>16</ele>
        <time>2019-03-20T15:31:03+01:00</time>
      </trkpt>
      <trkpt lat="45.90705" lon="-0.90515">
        <ele>16</ele>
        <time>2019-03-20T15:32:10+01:00</time>
      </trkpt>
      <trkpt lat="45.90682" lon="-0.90519">
        <ele>16</ele>
        <time>2019-03-20T15:32:22+01:00</time>
      </trkpt>
      <trkpt lat="45.90659" lon="-0.90528">
        <ele>16</ele>
        <time>2019-03-20T15:32:31+01:00</time>
      </trkpt>
      <trkpt lat="45.90637" lon="-0.90541">
        <ele>17</ele>
        <time>2019-03-20T15:32:42+01:00</time>
      </trkpt>
      <trkpt lat="45.90616" lon="-0.90554">
        <ele>17</ele>
        <time>2019-03-20T15:32:53+01:00</time>
      </trkpt>
      <trkpt lat="45.90594" lon="-0.90546">
        <ele>19</ele>
        <time>2019-03-20T15:33:07+01:00</time>
      </trkpt>
      <trkpt lat="45.90572" lon="-0.90532">
        <ele>20</ele>
        <time>2019-03-20T15:33:20+01:00</time>
      </trkpt>
      <trkpt lat="45.9055" lon="-0.90522">
        <ele>22</ele>
        <time>2019-03-20T15:33:33+01:00</time>
      </trkpt>
      <trkpt lat="45.90528" lon="-0.9051">
        <ele>23</ele>
        <time>2019-03-20T15:33:43+01:00</time>
      </trkpt>
      <trkpt lat="45.90503" lon="-0.90496">
        <ele>24</ele>
        <time>2019-03-20T15:33:54+01:00</time>
      </trkpt>
      <trkpt lat="45.90481" lon="-0.90481">
        <ele>24</ele>
        <time>2019-03-20T15:34:02+01:00</time>
      </trkpt>
      <trkpt lat="45.90456" lon="-0.9047">
        <ele>24</ele>
        <time>2019-03-20T15:34:09+01:00</time>
      </trkpt>
      <trkpt lat="45.90434" lon="-0.90459">
        <ele>25</ele>
        <time>2019-03-20T15:34:17+01:00</time>
      </trkpt>
      <trkpt lat="45.90409" lon="-0.90451">
        <ele>25</ele>
        <time>2019-03-20T15:34:25+01:00</time>
      </trkpt>
      <trkpt lat="45.90386" lon="-0.90437">
        <ele>24</ele>
        <time>2019-03-20T15:34:34+01:00</time>
      </trkpt>
      <trkpt lat="45.90369" lon="-0.90416">
        <ele>25</ele>
        <time>2019-03-20T15:34:44+01:00</time>
      </trkpt>
      <trkpt lat="45.90348" lon="-0.90394">
        <ele>24</ele>
        <time>2019-03-20T15:34:53+01:00</time>
      </trkpt>
      <trkpt lat="45.90337" lon="-0.90373">
        <ele>23</ele>
        <time>2019-03-20T15:35:01+01:00</time>
      </trkpt>
      <trkpt lat="45.90319" lon="-0.90353">
        <ele>22</ele>
        <time>2019-03-20T15:35:09+01:00</time>
      </trkpt>
      <trkpt lat="45.90303" lon="-0.9033">
        <ele>21</ele>
        <time>2019-03-20T15:35:18+01:00</time>
      </trkpt>
      <trkpt lat="45.90283" lon="-0.90311">
        <ele>20</ele>
        <time>2019-03-20T15:35:25+01:00</time>
      </trkpt>
      <trkpt lat="45.90263" lon="-0.90292">
        <ele>19</ele>
        <time>2019-03-20T15:35:32+01:00</time>
      </trkpt>
      <trkpt lat="45.90242" lon="-0.90274">
        <ele>19</ele>
        <time>2021-09-24T08:04:55+02:00</time>
      </trkpt>
      <trkpt lat="45.90221" lon="-0.90266">
        <ele>19</ele>
        <time>2019-03-20T15:35:40+01:00</time>
      </trkpt>
      <trkpt lat="45.90225" lon="-0.90225">
        <ele>18</ele>
        <time>2019-03-20T15:37:15+01:00</time>
      </trkpt>
      <trkpt lat="45.9023" lon="-0.90197">
        <ele>18</ele>
        <time>2019-03-20T15:37:24+01:00</time>
      </trkpt>
      <trkpt lat="45.90231" lon="-0.90159">
        <ele>18</ele>
        <time>2019-03-20T15:37:32+01:00</time>
      </trkpt>
      <trkpt lat="45.90238" lon="-0.90124">
        <ele>18</ele>
        <time>2019-03-20T15:37:39+01:00</time>
      </trkpt>
      <trkpt lat="45.9024" lon="-0.90091">
        <ele>19</ele>
        <time>2019-03-20T15:37:46+01:00</time>
      </trkpt>
      <trkpt lat="45.90242" lon="-0.90059">
        <ele>19</ele>
        <time>2019-03-20T15:37:53+01:00</time>
      </trkpt>
      <trkpt lat="45.90243" lon="-0.90025">
        <ele>20</ele>
        <time>2019-03-20T15:38:00+01:00</time>
      </trkpt>
      <trkpt lat="45.90243" lon="-0.89989">
        <ele>20</ele>
        <time>2019-03-20T15:38:08+01:00</time>
      </trkpt>
      <trkpt lat="45.90243" lon="-0.89954">
        <ele>20</ele>
        <time>2019-03-20T15:38:16+01:00</time>
      </trkpt>
      <trkpt lat="45.90244" lon="-0.89919">
        <ele>20</ele>
        <time>2019-03-20T15:38:24+01:00</time>
      </trkpt>
      <trkpt lat="45.90245" lon="-0.89885">
        <ele>20</ele>
        <time>2019-03-20T15:38:49+01:00</time>
      </trkpt>
      <trkpt lat="45.90242" lon="-0.8985">
        <ele>20</ele>
        <time>2019-03-20T15:40:10+01:00</time>
      </trkpt>
      <trkpt lat="45.90239" lon="-0.89814">
        <ele>19</ele>
        <time>2019-03-20T15:40:18+01:00</time>
      </trkpt>
      <trkpt lat="45.90236" lon="-0.89779">
        <ele>18</ele>
        <time>2019-03-20T15:40:26+01:00</time>
      </trkpt>
      <trkpt lat="45.90233" lon="-0.89743">
        <ele>17</ele>
        <time>2019-03-20T15:40:33+01:00</time>
      </trkpt>
      <trkpt lat="45.90229" lon="-0.89707">
        <ele>16</ele>
        <time>2019-03-20T15:40:40+01:00</time>
      </trkpt>
      <trkpt lat="45.90225" lon="-0.89671">
        <ele>14</ele>
        <time>2019-03-20T15:40:47+01:00</time>
      </trkpt>
      <trkpt lat="45.90217" lon="-0.89636">
        <ele>14</ele>
        <time>2019-03-20T15:40:55+01:00</time>
      </trkpt>
      <trkpt lat="45.90211" lon="-0.89604">
        <ele>14</ele>
        <time>2019-03-20T15:41:01+01:00</time>
      </trkpt>
      <trkpt lat="45.90204" lon="-0.89571">
        <ele>15</ele>
        <time>2019-03-20T15:41:07+01:00</time>
      </trkpt>
      <trkpt lat="45.90199" lon="-0.89538">
        <ele>14</ele>
        <time>2019-03-20T15:41:14+01:00</time>
      </trkpt>
      <trkpt lat="45.90194" lon="-0.89504">
        <ele>14</ele>
        <time>2019-03-20T15:41:21+01:00</time>
      </trkpt>
      <trkpt lat="45.90187" lon="-0.89472">
        <ele>14</ele>
        <time>2019-03-20T15:41:28+01:00</time>
      </trkpt>
      <trkpt lat="45.90181" lon="-0.89436">
        <ele>13</ele>
        <time>2019-03-20T15:41:35+01:00</time>
      </trkpt>
      <trkpt lat="45.90173" lon="-0.89402">
        <ele>13</ele>
        <time>2019-03-20T15:41:42+01:00</time>
      </trkpt>
      <trkpt lat="45.90167" lon="-0.8937">
        <ele>12</ele>
        <time>2019-03-20T15:41:50+01:00</time>
      </trkpt>
      <trkpt lat="45.90161" lon="-0.89333">
        <ele>12</ele>
        <time>2019-03-20T15:41:57+01:00</time>
      </trkpt>
      <trkpt lat="45.90155" lon="-0.89301">
        <ele>12</ele>
        <time>2019-03-20T15:42:03+01:00</time>
      </trkpt>
      <trkpt lat="45.90148" lon="-0.89265">
        <ele>12</ele>
        <time>2019-03-20T15:42:08+01:00</time>
      </trkpt>
      <trkpt lat="45.90142" lon="-0.89232">
        <ele>12</ele>
        <time>2019-03-20T15:42:14+01:00</time>
      </trkpt>
      <trkpt lat="45.90135" lon="-0.89199">
        <ele>12</ele>
        <time>2019-03-20T15:42:20+01:00</time>
      </trkpt>
      <trkpt lat="45.90128" lon="-0.89165">
        <ele>12</ele>
        <time>2019-03-20T15:42:25+01:00</time>
      </trkpt>
      <trkpt lat="45.90124" lon="-0.8913">
        <ele>11</ele>
        <time>2019-03-20T15:42:31+01:00</time>
      </trkpt>
      <trkpt lat="45.90119" lon="-0.89104">
        <ele>10</ele>
        <time>2019-03-20T15:42:42+01:00</time>
      </trkpt>
      <trkpt lat="45.90117" lon="-0.89062">
        <ele>9</ele>
        <time>2019-03-20T15:42:53+01:00</time>
      </trkpt>
      <trkpt lat="45.90115" lon="-0.89027">
        <ele>8</ele>
        <time>2019-03-20T15:43:02+01:00</time>
      </trkpt>
      <trkpt lat="45.90114" lon="-0.88992">
        <ele>7</ele>
        <time>2019-03-20T15:43:10+01:00</time>
      </trkpt>
      <trkpt lat="45.90113" lon="-0.88958">
        <ele>7</ele>
        <time>2019-03-20T15:43:17+01:00</time>
      </trkpt>
      <trkpt lat="45.90112" lon="-0.88922">
        <ele>6</ele>
        <time>2019-03-20T15:43:25+01:00</time>
      </trkpt>
      <trkpt lat="45.90112" lon="-0.88886">
        <ele>6</ele>
        <time>2019-03-20T15:43:32+01:00</time>
      </trkpt>
      <trkpt lat="45.90113" lon="-0.88847">
        <ele>6</ele>
        <time>2019-03-20T15:43:40+01:00</time>
      </trkpt>
      <trkpt lat="45.90112" lon="-0.88811">
        <ele>7</ele>
        <time>2019-03-20T15:43:48+01:00</time>
      </trkpt>
      <trkpt lat="45.90115" lon="-0.88776">
        <ele>7</ele>
        <time>2019-03-20T15:43:55+01:00</time>
      </trkpt>
      <trkpt lat="45.90118" lon="-0.88733">
        <ele>8</ele>
        <time>2019-03-20T15:44:02+01:00</time>
      </trkpt>
      <trkpt lat="45.90121" lon="-0.887">
        <ele>8</ele>
        <time>2019-03-20T15:44:08+01:00</time>
      </trkpt>
      <trkpt lat="45.90125" lon="-0.88667">
        <ele>8</ele>
        <time>2019-03-20T15:44:14+01:00</time>
      </trkpt>
      <trkpt lat="45.90129" lon="-0.88636">
        <ele>7</ele>
        <time>2019-03-20T15:44:20+01:00</time>
      </trkpt>
      <trkpt lat="45.90133" lon="-0.88594">
        <ele>7</ele>
        <time>2019-03-20T15:44:27+01:00</time>
      </trkpt>
      <trkpt lat="45.9014" lon="-0.88559">
        <ele>7</ele>
        <time>2019-03-20T15:44:33+01:00</time>
      </trkpt>
      <trkpt lat="45.90145" lon="-0.88529">
        <ele>6</ele>
        <time>2019-03-20T15:44:40+01:00</time>
      </trkpt>
      <trkpt lat="45.9015" lon="-0.88494">
        <ele>6</ele>
        <time>2019-03-20T15:44:47+01:00</time>
      </trkpt>
      <trkpt lat="45.90158" lon="-0.88457">
        <ele>7</ele>
        <time>2019-03-20T15:44:54+01:00</time>
      </trkpt>
      <trkpt lat="45.90165" lon="-0.88425">
        <ele>7</ele>
        <time>2019-03-20T15:45:01+01:00</time>
      </trkpt>
      <trkpt lat="45.90172" lon="-0.88398">
        <ele>7</ele>
        <time>2019-03-20T15:45:11+01:00</time>
      </trkpt>
      <trkpt lat="45.90182" lon="-0.8837">
        <ele>7</ele>
        <time>2019-03-20T15:45:19+01:00</time>
      </trkpt>
      <trkpt lat="45.90189" lon="-0.88339">
        <ele>8</ele>
        <time>2019-03-20T15:45:26+01:00</time>
      </trkpt>
      <trkpt lat="45.90198" lon="-0.88306">
        <ele>8</ele>
        <time>2019-03-20T15:45:33+01:00</time>
      </trkpt>
      <trkpt lat="45.90206" lon="-0.88275">
        <ele>8</ele>
        <time>2019-03-20T15:45:40+01:00</time>
      </trkpt>
      <trkpt lat="45.90216" lon="-0.88243">
        <ele>8</ele>
        <time>2019-03-20T15:45:47+01:00</time>
      </trkpt>
      <trkpt lat="45.90227" lon="-0.88212">
        <ele>8</ele>
        <time>2019-03-20T15:45:54+01:00</time>
      </trkpt>
      <trkpt lat="45.90237" lon="-0.88181">
        <ele>9</ele>
        <time>2019-03-20T15:46:01+01:00</time>
      </trkpt>
      <trkpt lat="45.90248" lon="-0.8815">
        <ele>9</ele>
        <time>2019-03-20T15:46:08+01:00</time>
      </trkpt>
      <trkpt lat="45.90257" lon="-0.88118">
        <ele>9</ele>
        <time>2019-03-20T15:46:16+01:00</time>
      </trkpt>
      <trkpt lat="45.90271" lon="-0.88087">
        <ele>9</ele>
        <time>2019-03-20T15:46:25+01:00</time>
      </trkpt>
      <trkpt lat="45.90281" lon="-0.88058">
        <ele>9</ele>
        <time>2019-03-20T15:46:32+01:00</time>
      </trkpt>
      <trkpt lat="45.9029" lon="-0.88024">
        <ele>9</ele>
        <time>2019-03-20T15:46:40+01:00</time>
      </trkpt>
      <trkpt lat="45.90293" lon="-0.87991">
        <ele>9</ele>
        <time>2019-03-20T15:46:47+01:00</time>
      </trkpt>
      <trkpt lat="45.90297" lon="-0.87958">
        <ele>9</ele>
        <time>2019-03-20T15:47:28+01:00</time>
      </trkpt>
      <trkpt lat="45.90312" lon="-0.87928">
        <ele>9</ele>
        <time>2019-03-20T15:48:08+01:00</time>
      </trkpt>
      <trkpt lat="45.90328" lon="-0.87887">
        <ele>8</ele>
        <time>2019-03-20T15:48:15+01:00</time>
      </trkpt>
      <trkpt lat="45.90339" lon="-0.87861">
        <ele>8</ele>
        <time>2019-03-20T15:48:22+01:00</time>
      </trkpt>
      <trkpt lat="45.9035" lon="-0.87838">
        <ele>7</ele>
        <time>2019-03-20T15:48:30+01:00</time>
      </trkpt>
      <trkpt lat="45.90363" lon="-0.87811">
        <ele>7</ele>
        <time>2019-03-20T15:48:40+01:00</time>
      </trkpt>
      <trkpt lat="45.90374" lon="-0.87779">
        <ele>6</ele>
        <time>2019-03-20T15:48:48+01:00</time>
      </trkpt>
      <trkpt lat="45.90386" lon="-0.87749">
        <ele>5</ele>
        <time>2019-03-20T15:48:55+01:00</time>
      </trkpt>
      <trkpt lat="45.90394" lon="-0.87718">
        <ele>5</ele>
        <time>2019-03-20T15:49:02+01:00</time>
      </trkpt>
      <trkpt lat="45.90405" lon="-0.87685">
        <ele>4</ele>
        <time>2019-03-20T15:49:09+01:00</time>
      </trkpt>
      <trkpt lat="45.90414" lon="-0.87652">
        <ele>4</ele>
        <time>2019-03-20T15:49:16+01:00</time>
      </trkpt>
      <trkpt lat="45.90423" lon="-0.87621">
        <ele>4</ele>
        <time>2019-03-20T15:49:25+01:00</time>
      </trkpt>
      <trkpt lat="45.90435" lon="-0.87592">
        <ele>4</ele>
        <time>2019-03-20T15:49:33+01:00</time>
      </trkpt>
      <trkpt lat="45.90445" lon="-0.87559">
        <ele>4</ele>
        <time>2019-03-20T15:49:40+01:00</time>
      </trkpt>
      <trkpt lat="45.90454" lon="-0.87528">
        <ele>4</ele>
        <time>2019-03-20T15:49:49+01:00</time>
      </trkpt>
      <trkpt lat="45.90465" lon="-0.87496">
        <ele>4</ele>
        <time>2019-03-20T15:49:57+01:00</time>
      </trkpt>
      <trkpt lat="45.90475" lon="-0.87458">
        <ele>5</ele>
        <time>2019-03-20T15:50:05+01:00</time>
      </trkpt>
      <trkpt lat="45.90487" lon="-0.87426">
        <ele>5</ele>
        <time>2019-03-20T15:50:13+01:00</time>
      </trkpt>
      <trkpt lat="45.90501" lon="-0.87395">
        <ele>6</ele>
        <time>2019-03-20T15:50:20+01:00</time>
      </trkpt>
      <trkpt lat="45.90511" lon="-0.87368">
        <ele>6</ele>
        <time>2019-03-20T15:50:27+01:00</time>
      </trkpt>
      <trkpt lat="45.90523" lon="-0.87338">
        <ele>6</ele>
        <time>2019-03-20T15:50:35+01:00</time>
      </trkpt>
      <trkpt lat="45.90537" lon="-0.87309">
        <ele>7</ele>
        <time>2019-03-20T15:50:43+01:00</time>
      </trkpt>
      <trkpt lat="45.90554" lon="-0.87287">
        <ele>7</ele>
        <time>2019-03-20T15:50:51+01:00</time>
      </trkpt>
      <trkpt lat="45.90569" lon="-0.87255">
        <ele>7</ele>
        <time>2019-03-20T15:50:59+01:00</time>
      </trkpt>
      <trkpt lat="45.90582" lon="-0.87228">
        <ele>8</ele>
        <time>2019-03-20T15:51:06+01:00</time>
      </trkpt>
      <trkpt lat="45.906" lon="-0.87209">
        <ele>8</ele>
        <time>2019-03-20T15:51:13+01:00</time>
      </trkpt>
      <trkpt lat="45.90615" lon="-0.87181">
        <ele>8</ele>
        <time>2019-03-20T15:51:20+01:00</time>
      </trkpt>
      <trkpt lat="45.9063" lon="-0.87155">
        <ele>8</ele>
        <time>2019-03-20T15:51:27+01:00</time>
      </trkpt>
      <trkpt lat="45.90645" lon="-0.87131">
        <ele>8</ele>
        <time>2019-03-20T15:51:33+01:00</time>
      </trkpt>
      <trkpt lat="45.90662" lon="-0.87104">
        <ele>8</ele>
        <time>2019-03-20T15:51:40+01:00</time>
      </trkpt>
      <trkpt lat="45.90678" lon="-0.87077">
        <ele>8</ele>
        <time>2019-03-20T15:51:47+01:00</time>
      </trkpt>
      <trkpt lat="45.90695" lon="-0.87052">
        <ele>8</ele>
        <time>2019-03-20T15:51:54+01:00</time>
      </trkpt>
      <trkpt lat="45.90712" lon="-0.87028">
        <ele>8</ele>
        <time>2019-03-20T15:52:01+01:00</time>
      </trkpt>
      <trkpt lat="45.90735" lon="-0.86999">
        <ele>8</ele>
        <time>2021-09-24T08:13:25+02:00</time>
      </trkpt>
      <trkpt lat="45.90744" lon="-0.86981">
        <ele>8</ele>
        <time>2019-03-20T15:52:25+01:00</time>
      </trkpt>
      <trkpt lat="45.90761" lon="-0.86955">
        <ele>7</ele>
        <time>2019-03-20T15:52:36+01:00</time>
      </trkpt>
      <trkpt lat="45.90778" lon="-0.8693">
        <ele>6</ele>
        <time>2019-03-20T15:52:44+01:00</time>
      </trkpt>
      <trkpt lat="45.90796" lon="-0.86904">
        <ele>5</ele>
        <time>2019-03-20T15:52:52+01:00</time>
      </trkpt>
      <trkpt lat="45.90813" lon="-0.8688">
        <ele>5</ele>
        <time>2019-03-20T15:52:59+01:00</time>
      </trkpt>
      <trkpt lat="45.9083" lon="-0.86857">
        <ele>5</ele>
        <time>2019-03-20T15:53:06+01:00</time>
      </trkpt>
      <trkpt lat="45.90844" lon="-0.86833">
        <ele>5</ele>
        <time>2019-03-20T15:53:52+01:00</time>
      </trkpt>
      <trkpt lat="45.90861" lon="-0.86809">
        <ele>4</ele>
        <time>2019-03-20T15:54:06+01:00</time>
      </trkpt>
      <trkpt lat="45.90878" lon="-0.86783">
        <ele>4</ele>
        <time>2019-03-20T15:54:43+01:00</time>
      </trkpt>
      <trkpt lat="45.90895" lon="-0.86762">
        <ele>3</ele>
        <time>2019-03-20T15:54:53+01:00</time>
      </trkpt>
      <trkpt lat="45.90912" lon="-0.86738">
        <ele>2</ele>
        <time>2019-03-20T15:55:03+01:00</time>
      </trkpt>
      <trkpt lat="45.90928" lon="-0.86713">
        <ele>1</ele>
        <time>2019-03-20T15:55:12+01:00</time>
      </trkpt>
      <trkpt lat="45.90945" lon="-0.8669">
        <ele>1</ele>
        <time>2019-03-20T15:55:20+01:00</time>
      </trkpt>
      <trkpt lat="45.9096" lon="-0.86666">
        <time>2019-03-20T15:55:28+01:00</time>
      </trkpt>
      <trkpt lat="45.90977" lon="-0.86641">
        <ele>1</ele>
        <time>2019-03-20T15:55:37+01:00</time>
      </trkpt>
      <trkpt lat="45.90993" lon="-0.86619">
        <ele>1</ele>
        <time>2019-03-20T15:59:07+01:00</time>
      </trkpt>
      <trkpt lat="45.91007" lon="-0.86605">
        <ele>1</ele>
        <time>2019-03-20T15:59:19+01:00</time>
      </trkpt>
      <trkpt lat="45.90993" lon="-0.86584">
        <ele>2</ele>
        <time>2019-03-20T16:08:10+01:00</time>
      </trkpt>
      <trkpt lat="45.91002" lon="-0.86571">
        <ele>2</ele>
        <time>2019-03-20T16:08:23+01:00</time>
      </trkpt>
      <trkpt lat="45.9102" lon="-0.86546">
        <ele>2</ele>
        <time>2019-03-20T16:08:31+01:00</time>
      </trkpt>
      <trkpt lat="45.91037" lon="-0.86518">
        <ele>2</ele>
        <time>2019-03-20T16:08:39+01:00</time>
      </trkpt>
      <trkpt lat="45.91052" lon="-0.86494">
        <ele>3</ele>
        <time>2019-03-20T16:08:46+01:00</time>
      </trkpt>
      <trkpt lat="45.91069" lon="-0.86471">
        <ele>2</ele>
        <time>2019-03-20T16:08:53+01:00</time>
      </trkpt>
      <trkpt lat="45.91086" lon="-0.86447">
        <ele>2</ele>
        <time>2019-03-20T16:09:00+01:00</time>
      </trkpt>
      <trkpt lat="45.91102" lon="-0.86424">
        <ele>1</ele>
        <time>2019-03-20T16:09:07+01:00</time>
      </trkpt>
      <trkpt lat="45.9112" lon="-0.86399">
        <ele>2</ele>
        <time>2019-03-20T16:09:15+01:00</time>
      </trkpt>
      <trkpt lat="45.91132" lon="-0.86386">
        <ele>2</ele>
        <time>2021-09-24T08:15:40+02:00</time>
      </trkpt>
      <trkpt lat="45.91144" lon="-0.86408">
        <ele>2</ele>
        <time>2019-03-20T16:09:27+01:00</time>
      </trkpt>
      <trkpt lat="45.91163" lon="-0.86425">
        <ele>2</ele>
        <time>2019-03-20T16:09:36+01:00</time>
      </trkpt>
      <trkpt lat="45.91185" lon="-0.86443">
        <ele>1</ele>
        <time>2019-03-20T16:09:44+01:00</time>
      </trkpt>
      <trkpt lat="45.91204" lon="-0.86464">
        <ele>1</ele>
        <time>2019-03-20T16:09:51+01:00</time>
      </trkpt>
      <trkpt lat="45.91223" lon="-0.86483">
        <ele>3</ele>
        <time>2019-03-20T16:09:57+01:00</time>
      </trkpt>
      <trkpt lat="45.91242" lon="-0.86502">
        <ele>3</ele>
        <time>2019-03-20T16:10:03+01:00</time>
      </trkpt>
      <trkpt lat="45.91261" lon="-0.86522">
        <ele>3</ele>
        <time>2019-03-20T16:10:09+01:00</time>
      </trkpt>
      <trkpt lat="45.91279" lon="-0.86543">
        <ele>1</ele>
        <time>2019-03-20T16:10:16+01:00</time>
      </trkpt>
      <trkpt lat="45.91298" lon="-0.86562">
        <ele>1</ele>
        <time>2019-03-20T16:10:23+01:00</time>
      </trkpt>
      <trkpt lat="45.91317" lon="-0.86582">
        <ele>1</ele>
        <time>2019-03-20T16:10:30+01:00</time>
      </trkpt>
      <trkpt lat="45.91337" lon="-0.86601">
        <ele>1</ele>
        <time>2019-03-20T16:10:37+01:00</time>
      </trkpt>
      <trkpt lat="45.91357" lon="-0.86623">
        <ele>1</ele>
        <time>2019-03-20T16:10:45+01:00</time>
      </trkpt>
      <trkpt lat="45.91376" lon="-0.86642">
        <ele>1</ele>
        <time>2019-03-20T16:10:52+01:00</time>
      </trkpt>
      <trkpt lat="45.91397" lon="-0.86663">
        <ele>2</ele>
        <time>2019-03-20T16:10:59+01:00</time>
      </trkpt>
      <trkpt lat="45.91415" lon="-0.86683">
        <ele>2</ele>
        <time>2019-03-20T16:11:06+01:00</time>
      </trkpt>
      <trkpt lat="45.91435" lon="-0.86704">
        <ele>2</ele>
        <time>2019-03-20T16:11:13+01:00</time>
      </trkpt>
      <trkpt lat="45.91455" lon="-0.86725">
        <ele>1</ele>
        <time>2019-03-20T16:11:20+01:00</time>
      </trkpt>
      <trkpt lat="45.91474" lon="-0.86742">
        <ele>1</ele>
        <time>2019-03-20T16:11:26+01:00</time>
      </trkpt>
      <trkpt lat="45.91494" lon="-0.86764">
        <ele>1</ele>
        <time>2019-03-20T16:11:33+01:00</time>
      </trkpt>
      <trkpt lat="45.91514" lon="-0.86787">
        <ele>1</ele>
        <time>2019-03-20T16:11:40+01:00</time>
      </trkpt>
      <trkpt lat="45.91534" lon="-0.86806">
        <ele>2</ele>
        <time>2019-03-20T16:11:46+01:00</time>
      </trkpt>
      <trkpt lat="45.91554" lon="-0.86826">
        <ele>2</ele>
        <time>2019-03-20T16:11:52+01:00</time>
      </trkpt>
      <trkpt lat="45.91575" lon="-0.86848">
        <ele>2</ele>
        <time>2019-03-20T16:11:59+01:00</time>
      </trkpt>
      <trkpt lat="45.91593" lon="-0.86867">
        <ele>2</ele>
        <time>2019-03-20T16:12:05+01:00</time>
      </trkpt>
      <trkpt lat="45.91612" lon="-0.86885">
        <ele>2</ele>
        <time>2019-03-20T16:12:11+01:00</time>
      </trkpt>
      <trkpt lat="45.91634" lon="-0.86907">
        <ele>1</ele>
        <time>2019-03-20T16:12:18+01:00</time>
      </trkpt>
      <trkpt lat="45.91652" lon="-0.86926">
        <ele>1</ele>
        <time>2019-03-20T16:12:24+01:00</time>
      </trkpt>
      <trkpt lat="45.91672" lon="-0.86947">
        <ele>1</ele>
        <time>2019-03-20T16:12:31+01:00</time>
      </trkpt>
      <trkpt lat="45.91693" lon="-0.86969">
        <ele>1</ele>
        <time>2019-03-20T16:12:38+01:00</time>
      </trkpt>
      <trkpt lat="45.91712" lon="-0.86988">
        <ele>2</ele>
        <time>2019-03-20T16:12:44+01:00</time>
      </trkpt>
      <trkpt lat="45.91733" lon="-0.8701">
        <ele>2</ele>
        <time>2019-03-20T16:12:51+01:00</time>
      </trkpt>
      <trkpt lat="45.91754" lon="-0.87032">
        <ele>2</ele>
        <time>2019-03-20T16:12:58+01:00</time>
      </trkpt>
      <trkpt lat="45.91773" lon="-0.87052">
        <ele>3</ele>
        <time>2019-03-20T16:13:05+01:00</time>
      </trkpt>
      <trkpt lat="45.91794" lon="-0.87072">
        <ele>3</ele>
        <time>2019-03-20T16:13:12+01:00</time>
      </trkpt>
      <trkpt lat="45.91816" lon="-0.87094">
        <ele>4</ele>
        <time>2019-03-20T16:13:19+01:00</time>
      </trkpt>
      <trkpt lat="45.91836" lon="-0.87115">
        <ele>3</ele>
        <time>2019-03-20T16:13:26+01:00</time>
      </trkpt>
      <trkpt lat="45.91856" lon="-0.87134">
        <ele>3</ele>
        <time>2019-03-20T16:13:33+01:00</time>
      </trkpt>
      <trkpt lat="45.91876" lon="-0.87154">
        <ele>2</ele>
        <time>2019-03-20T16:13:40+01:00</time>
      </trkpt>
      <trkpt lat="45.91896" lon="-0.87176">
        <ele>2</ele>
        <time>2019-03-20T16:13:47+01:00</time>
      </trkpt>
      <trkpt lat="45.91916" lon="-0.87195">
        <ele>2</ele>
        <time>2019-03-20T16:13:54+01:00</time>
      </trkpt>
      <trkpt lat="45.91927" lon="-0.87205">
        <ele>1</ele>
        <time>2021-09-24T08:19:05+02:00</time>
      </trkpt>
      <trkpt lat="45.91941" lon="-0.872">
        <ele>1</ele>
        <time>2019-03-20T16:14:02+01:00</time>
      </trkpt>
      <trkpt lat="45.91965" lon="-0.87187">
        <ele>1</ele>
        <time>2019-03-20T16:14:10+01:00</time>
      </trkpt>
      <trkpt lat="45.91986" lon="-0.87175">
        <ele>3</ele>
        <time>2019-03-20T16:14:17+01:00</time>
      </trkpt>
      <trkpt lat="45.92008" lon="-0.87159">
        <ele>3.1</ele>
        <time>2019-03-20T16:14:24+01:00</time>
      </trkpt>
      <trkpt lat="45.9203" lon="-0.87143">
        <ele>3.8</ele>
        <time>2019-03-20T16:14:31+01:00</time>
      </trkpt>
      <trkpt lat="45.92051" lon="-0.87127">
        <ele>3.1</ele>
        <time>2019-03-20T16:14:38+01:00</time>
      </trkpt>
      <trkpt lat="45.92073" lon="-0.87114">
        <ele>3</ele>
        <time>2019-03-20T16:14:45+01:00</time>
      </trkpt>
      <trkpt lat="45.92098" lon="-0.87105">
        <ele>-1</ele>
        <time>2019-03-20T16:14:52+01:00</time>
      </trkpt>
      <trkpt lat="45.92121" lon="-0.87099">
        <ele>3</ele>
        <time>2019-03-20T16:14:58+01:00</time>
      </trkpt>
      <trkpt lat="45.92147" lon="-0.87091">
        <ele>3</ele>
        <time>2019-03-20T16:15:05+01:00</time>
      </trkpt>
      <trkpt lat="45.92169" lon="-0.87083">
        <ele>3</ele>
        <time>2019-03-20T16:15:11+01:00</time>
      </trkpt>
      <trkpt lat="45.92191" lon="-0.87076">
        <ele>1</ele>
        <time>2019-03-20T16:15:17+01:00</time>
      </trkpt>
      <trkpt lat="45.92216" lon="-0.87067">
        <ele>2</ele>
        <time>2019-03-20T16:15:24+01:00</time>
      </trkpt>
      <trkpt lat="45.92239" lon="-0.87061">
        <ele>2</ele>
        <time>2019-03-20T16:15:30+01:00</time>
      </trkpt>
      <trkpt lat="45.92262" lon="-0.87052">
        <ele>2</ele>
        <time>2019-03-20T16:15:37+01:00</time>
      </trkpt>
      <trkpt lat="45.92286" lon="-0.87047">
        <ele>2</ele>
        <time>2019-03-20T16:15:44+01:00</time>
      </trkpt>
      <trkpt lat="45.92307" lon="-0.87038">
        <ele>1</ele>
        <time>2019-03-20T16:15:50+01:00</time>
      </trkpt>
      <trkpt lat="45.9233" lon="-0.87021">
        <ele>1</ele>
        <time>2019-03-20T16:15:57+01:00</time>
      </trkpt>
      <trkpt lat="45.92352" lon="-0.87014">
        <ele>1</ele>
        <time>2019-03-20T16:16:03+01:00</time>
      </trkpt>
      <trkpt lat="45.92378" lon="-0.87006">
        <ele>1</ele>
        <time>2019-03-20T16:16:10+01:00</time>
      </trkpt>
      <trkpt lat="45.92403" lon="-0.86999">
        <ele>1</ele>
        <time>2019-03-20T16:16:17+01:00</time>
      </trkpt>
      <trkpt lat="45.92427" lon="-0.86993">
        <ele>1</ele>
        <time>2019-03-20T16:16:24+01:00</time>
      </trkpt>
      <trkpt lat="45.92451" lon="-0.86986">
        <ele>1</ele>
        <time>2019-03-20T16:16:31+01:00</time>
      </trkpt>
      <trkpt lat="45.92473" lon="-0.86979">
        <ele>2</ele>
        <time>2019-03-20T16:16:37+01:00</time>
      </trkpt>
      <trkpt lat="45.92499" lon="-0.86971">
        <ele>2</ele>
        <time>2019-03-20T16:16:44+01:00</time>
      </trkpt>
      <trkpt lat="45.92524" lon="-0.86965">
        <ele>1</ele>
        <time>2019-03-20T16:16:51+01:00</time>
      </trkpt>
      <trkpt lat="45.92548" lon="-0.86956">
        <ele>1</ele>
        <time>2019-03-20T16:16:58+01:00</time>
      </trkpt>
      <trkpt lat="45.92572" lon="-0.86951">
        <ele>1</ele>
        <time>2019-03-20T16:17:04+01:00</time>
      </trkpt>
      <trkpt lat="45.92594" lon="-0.86944">
        <ele>1</ele>
        <time>2019-03-20T16:17:10+01:00</time>
      </trkpt>
      <trkpt lat="45.92619" lon="-0.86939">
        <ele>1</ele>
        <time>2019-03-20T16:17:17+01:00</time>
      </trkpt>
      <trkpt lat="45.92642" lon="-0.86933">
        <ele>1</ele>
        <time>2019-03-20T16:17:24+01:00</time>
      </trkpt>
      <trkpt lat="45.92666" lon="-0.86925">
        <ele>1</ele>
        <time>2019-03-20T16:17:30+01:00</time>
      </trkpt>
      <trkpt lat="45.92691" lon="-0.8692">
        <ele>1</ele>
        <time>2019-03-20T16:17:37+01:00</time>
      </trkpt>
      <trkpt lat="45.92716" lon="-0.86912">
        <ele>1</ele>
        <time>2019-03-20T16:17:44+01:00</time>
      </trkpt>
      <trkpt lat="45.9274" lon="-0.86906">
        <ele>1</ele>
        <time>2019-03-20T16:17:51+01:00</time>
      </trkpt>
      <trkpt lat="45.92766" lon="-0.86898">
        <ele>2</ele>
        <time>2019-03-20T16:17:58+01:00</time>
      </trkpt>
      <trkpt lat="45.9279" lon="-0.86889">
        <ele>3</ele>
        <time>2019-03-20T16:18:05+01:00</time>
      </trkpt>
      <trkpt lat="45.92815" lon="-0.86884">
        <ele>3</ele>
        <time>2019-03-20T16:18:12+01:00</time>
      </trkpt>
      <trkpt lat="45.92838" lon="-0.86878">
        <ele>4</ele>
        <time>2019-03-20T16:18:20+01:00</time>
      </trkpt>
      <trkpt lat="45.9286" lon="-0.86867">
        <ele>5</ele>
        <time>2019-03-20T16:18:29+01:00</time>
      </trkpt>
      <trkpt lat="45.92874" lon="-0.86861">
        <ele>5</ele>
        <time>2021-09-24T08:22:30+02:00</time>
      </trkpt>
      <trkpt lat="45.92883" lon="-0.8687">
        <ele>5</ele>
        <time>2019-03-20T16:19:27+01:00</time>
      </trkpt>
      <trkpt lat="45.92905" lon="-0.86888">
        <ele>5</ele>
        <time>2019-03-20T16:19:39+01:00</time>
      </trkpt>
      <trkpt lat="45.92926" lon="-0.86906">
        <ele>5</ele>
        <time>2019-03-20T16:19:47+01:00</time>
      </trkpt>
      <trkpt lat="45.92945" lon="-0.86924">
        <ele>4</ele>
        <time>2019-03-20T16:19:53+01:00</time>
      </trkpt>
      <trkpt lat="45.92965" lon="-0.86944">
        <ele>4</ele>
        <time>2019-03-20T16:20:00+01:00</time>
      </trkpt>
      <trkpt lat="45.92987" lon="-0.86963">
        <ele>4</ele>
        <time>2019-03-20T16:20:07+01:00</time>
      </trkpt>
      <trkpt lat="45.93006" lon="-0.86979">
        <ele>4</ele>
        <time>2019-03-20T16:20:13+01:00</time>
      </trkpt>
      <trkpt lat="45.93026" lon="-0.86997">
        <ele>3</ele>
        <time>2019-03-20T16:20:19+01:00</time>
      </trkpt>
      <trkpt lat="45.93044" lon="-0.87017">
        <ele>3</ele>
        <time>2019-03-20T16:20:25+01:00</time>
      </trkpt>
      <trkpt lat="45.93064" lon="-0.87034">
        <ele>2</ele>
        <time>2019-03-20T16:20:31+01:00</time>
      </trkpt>
      <trkpt lat="45.93083" lon="-0.87054">
        <ele>2</ele>
        <time>2019-03-20T16:20:37+01:00</time>
      </trkpt>
      <trkpt lat="45.93103" lon="-0.87071">
        <ele>2</ele>
        <time>2019-03-20T16:20:43+01:00</time>
      </trkpt>
      <trkpt lat="45.93121" lon="-0.87091">
        <ele>2</ele>
        <time>2019-03-20T16:20:50+01:00</time>
      </trkpt>
      <trkpt lat="45.9314" lon="-0.8711">
        <ele>2</ele>
        <time>2019-03-20T16:20:56+01:00</time>
      </trkpt>
      <trkpt lat="45.93159" lon="-0.87129">
        <ele>2</ele>
        <time>2019-03-20T16:21:02+01:00</time>
      </trkpt>
      <trkpt lat="45.93179" lon="-0.87147">
        <ele>3</ele>
        <time>2019-03-20T16:21:08+01:00</time>
      </trkpt>
      <trkpt lat="45.93198" lon="-0.87166">
        <ele>3</ele>
        <time>2019-03-20T16:21:14+01:00</time>
      </trkpt>
      <trkpt lat="45.93217" lon="-0.87183">
        <ele>3</ele>
        <time>2019-03-20T16:21:20+01:00</time>
      </trkpt>
      <trkpt lat="45.93237" lon="-0.87202">
        <ele>3</ele>
        <time>2019-03-20T16:21:26+01:00</time>
      </trkpt>
      <trkpt lat="45.93257" lon="-0.8722">
        <ele>3</ele>
        <time>2019-03-20T16:21:32+01:00</time>
      </trkpt>
      <trkpt lat="45.93277" lon="-0.87236">
        <ele>3</ele>
        <time>2019-03-20T16:21:38+01:00</time>
      </trkpt>
      <trkpt lat="45.93297" lon="-0.87257">
        <ele>3</ele>
        <time>2019-03-20T16:21:44+01:00</time>
      </trkpt>
      <trkpt lat="45.93319" lon="-0.87277">
        <ele>3</ele>
        <time>2019-03-20T16:21:51+01:00</time>
      </trkpt>
      <trkpt lat="45.93337" lon="-0.87296">
        <ele>2</ele>
        <time>2019-03-20T16:21:57+01:00</time>
      </trkpt>
      <trkpt lat="45.93357" lon="-0.87315">
        <ele>2</ele>
        <time>2019-03-20T16:22:03+01:00</time>
      </trkpt>
      <trkpt lat="45.93378" lon="-0.87335">
        <ele>2</ele>
        <time>2019-03-20T16:22:09+01:00</time>
      </trkpt>
      <trkpt lat="45.93397" lon="-0.87354">
        <ele>2</ele>
        <time>2019-03-20T16:22:15+01:00</time>
      </trkpt>
      <trkpt lat="45.93416" lon="-0.87373">
        <ele>2</ele>
        <time>2019-03-20T16:22:21+01:00</time>
      </trkpt>
      <trkpt lat="45.93437" lon="-0.87393">
        <ele>2</ele>
        <time>2019-03-20T16:22:28+01:00</time>
      </trkpt>
      <trkpt lat="45.93457" lon="-0.8741">
        <ele>2</ele>
        <time>2019-03-20T16:22:34+01:00</time>
      </trkpt>
      <trkpt lat="45.93479" lon="-0.8743">
        <ele>2</ele>
        <time>2019-03-20T16:22:41+01:00</time>
      </trkpt>
      <trkpt lat="45.93497" lon="-0.87448">
        <ele>2</ele>
        <time>2019-03-20T16:22:48+01:00</time>
      </trkpt>
      <trkpt lat="45.93518" lon="-0.87468">
        <ele>3</ele>
        <time>2019-03-20T16:22:55+01:00</time>
      </trkpt>
      <trkpt lat="45.93537" lon="-0.87488">
        <ele>3</ele>
        <time>2019-03-20T16:23:02+01:00</time>
      </trkpt>
      <trkpt lat="45.93557" lon="-0.87507">
        <ele>3</ele>
        <time>2019-03-20T16:23:09+01:00</time>
      </trkpt>
      <trkpt lat="45.93577" lon="-0.87529">
        <ele>3</ele>
        <time>2019-03-20T16:23:16+01:00</time>
      </trkpt>
      <trkpt lat="45.93596" lon="-0.87554">
        <ele>3</ele>
        <time>2019-03-20T16:23:23+01:00</time>
      </trkpt>
      <trkpt lat="45.93613" lon="-0.87575">
        <ele>3</ele>
        <time>2019-03-20T16:23:29+01:00</time>
      </trkpt>
      <trkpt lat="45.93633" lon="-0.87598">
        <ele>4</ele>
        <time>2019-03-20T16:23:36+01:00</time>
      </trkpt>
      <trkpt lat="45.93652" lon="-0.8762">
        <ele>4</ele>
        <time>2019-03-20T16:23:43+01:00</time>
      </trkpt>
      <trkpt lat="45.9367" lon="-0.8764">
        <ele>4</ele>
        <time>2019-03-20T16:23:49+01:00</time>
      </trkpt>
      <trkpt lat="45.93689" lon="-0.87661">
        <ele>4</ele>
        <time>2019-03-20T16:23:55+01:00</time>
      </trkpt>
      <trkpt lat="45.93708" lon="-0.87683">
        <ele>4</ele>
        <time>2019-03-20T16:24:02+01:00</time>
      </trkpt>
      <trkpt lat="45.93728" lon="-0.87708">
        <ele>4</ele>
        <time>2019-03-20T16:24:09+01:00</time>
      </trkpt>
      <trkpt lat="45.93746" lon="-0.8773">
        <ele>5</ele>
        <time>2019-03-20T16:24:15+01:00</time>
      </trkpt>
      <trkpt lat="45.93764" lon="-0.87756">
        <ele>5</ele>
        <time>2019-03-20T16:24:22+01:00</time>
      </trkpt>
      <trkpt lat="45.93785" lon="-0.87775">
        <ele>4</ele>
        <time>2019-03-20T16:24:29+01:00</time>
      </trkpt>
      <trkpt lat="45.93803" lon="-0.87797">
        <ele>4</ele>
        <time>2019-03-20T16:24:35+01:00</time>
      </trkpt>
      <trkpt lat="45.9382" lon="-0.87823">
        <ele>5</ele>
        <time>2019-03-20T16:24:41+01:00</time>
      </trkpt>
      <trkpt lat="45.93839" lon="-0.87846">
        <ele>5</ele>
        <time>2019-03-20T16:24:47+01:00</time>
      </trkpt>
      <trkpt lat="45.93857" lon="-0.87869">
        <ele>5</ele>
        <time>2019-03-20T16:24:53+01:00</time>
      </trkpt>
      <trkpt lat="45.93877" lon="-0.87892">
        <ele>5</ele>
        <time>2019-03-20T16:25:01+01:00</time>
      </trkpt>
      <trkpt lat="45.93897" lon="-0.87909">
        <ele>5</ele>
        <time>2019-03-20T16:25:42+01:00</time>
      </trkpt>
      <trkpt lat="45.93915" lon="-0.87928">
        <ele>6</ele>
        <time>2019-03-20T16:25:52+01:00</time>
      </trkpt>
      <trkpt lat="45.93934" lon="-0.87948">
        <ele>6</ele>
        <time>2019-03-20T16:26:00+01:00</time>
      </trkpt>
      <trkpt lat="45.93953" lon="-0.87965">
        <ele>6</ele>
        <time>2019-03-20T16:27:07+01:00</time>
      </trkpt>
      <trkpt lat="45.93966" lon="-0.87994">
        <ele>7</ele>
        <time>2019-03-20T16:27:17+01:00</time>
      </trkpt>
      <trkpt lat="45.93976" lon="-0.88027">
        <ele>7</ele>
        <time>2019-03-20T16:27:26+01:00</time>
      </trkpt>
      <trkpt lat="45.93987" lon="-0.88059">
        <ele>8</ele>
        <time>2019-03-20T16:27:35+01:00</time>
      </trkpt>
      <trkpt lat="45.93995" lon="-0.88092">
        <ele>8</ele>
        <time>2019-03-20T16:27:43+01:00</time>
      </trkpt>
      <trkpt lat="45.94" lon="-0.88128">
        <ele>9</ele>
        <time>2019-03-20T16:27:50+01:00</time>
      </trkpt>
      <trkpt lat="45.93997" lon="-0.88161">
        <ele>9</ele>
        <time>2019-03-20T16:27:57+01:00</time>
      </trkpt>
      <trkpt lat="45.93993" lon="-0.88198">
        <ele>9</ele>
        <time>2019-03-20T16:28:03+01:00</time>
      </trkpt>
      <trkpt lat="45.93974" lon="-0.88217">
        <ele>7</ele>
        <time>2019-03-20T16:28:10+01:00</time>
      </trkpt>
      <trkpt lat="45.93951" lon="-0.88231">
        <ele>6</ele>
        <time>2019-03-20T16:28:16+01:00</time>
      </trkpt>
      <trkpt lat="45.93924" lon="-0.88239">
        <ele>4</ele>
        <time>2019-03-20T16:28:22+01:00</time>
      </trkpt>
      <trkpt lat="45.93912" lon="-0.88254">
        <ele>4</ele>
        <time>2021-09-24T08:28:05+02:00</time>
      </trkpt>
      <trkpt lat="45.93916" lon="-0.88273">
        <ele>4</ele>
        <time>2019-03-20T16:28:31+01:00</time>
      </trkpt>
      <trkpt lat="45.93927" lon="-0.88304">
        <ele>4</ele>
        <time>2019-03-20T16:28:41+01:00</time>
      </trkpt>
      <trkpt lat="45.93939" lon="-0.88332">
        <ele>5</ele>
        <time>2019-03-20T16:28:50+01:00</time>
      </trkpt>
      <trkpt lat="45.93948" lon="-0.88361">
        <ele>5</ele>
        <time>2019-03-20T16:29:00+01:00</time>
      </trkpt>
      <trkpt lat="45.93957" lon="-0.88392">
        <ele>6</ele>
        <time>2019-03-20T16:30:05+01:00</time>
      </trkpt>
      <trkpt lat="45.9397" lon="-0.88422">
        <ele>6</ele>
        <time>2019-03-20T16:30:20+01:00</time>
      </trkpt>
      <trkpt lat="45.93984" lon="-0.88453">
        <ele>6</ele>
        <time>2019-03-20T16:30:29+01:00</time>
      </trkpt>
      <trkpt lat="45.93996" lon="-0.8848">
        <ele>5</ele>
        <time>2019-03-20T16:30:36+01:00</time>
      </trkpt>
      <trkpt lat="45.94011" lon="-0.8851">
        <ele>6</ele>
        <time>2019-03-20T16:30:43+01:00</time>
      </trkpt>
      <trkpt lat="45.94024" lon="-0.88536">
        <ele>7</ele>
        <time>2019-03-20T16:30:50+01:00</time>
      </trkpt>
      <trkpt lat="45.94035" lon="-0.88556">
        <ele>8</ele>
        <time>2019-03-20T16:32:23+01:00</time>
      </trkpt>
      <trkpt lat="45.94052" lon="-0.88565">
        <ele>8</ele>
        <time>2019-03-20T16:32:34+01:00</time>
      </trkpt>
      <trkpt lat="45.9407" lon="-0.88553">
        <ele>8</ele>
        <time>2021-09-24T08:29:10+02:00</time>
      </trkpt>
      <trkpt lat="45.94091" lon="-0.88541">
        <ele>10</ele>
        <time>2019-03-20T16:32:43+01:00</time>
      </trkpt>
    </trkseg>
  </trk>
</gpx>